Time;durP1;ratioP1;P1;durP2;ratioP2;P2;SDS_P1;SDS_P2;PMS_P1;PMS_P2;Temp;Humidity;BMP_temperature;BMP_pressure;BME280_temperature;BME280_humidity;BME280_pressure;Samples;Min_cycle;Max_cycle;Signal;HPM_P1;HPM_P2
2020/12/23 00:01:17;;;;;;;2.07;1.30;;;;;;;11.71;100.00;96360.13;5104684;28;20435;-83
2020/12/23 00:03:44;;;;;;;1.37;1.10;;;;;;;11.70;100.00;96353.25;5104873;28;20455;-82
2020/12/23 00:06:11;;;;;;;1.10;1.00;;;;;;;11.65;100.00;96349.47;5104511;28;20450;-82
2020/12/23 00:08:37;;;;;;;1.10;1.00;;;;;;;11.68;100.00;96347.66;5102456;28;20930;-87
2020/12/23 00:11:04;;;;;;;2.30;0.87;;;;;;;11.67;100.00;96346.22;5096287;28;20786;-86
2020/12/23 00:13:30;;;;;;;2.30;0.90;;;;;;;11.67;100.00;96348.94;5096499;28;20853;-86
2020/12/23 00:15:57;;;;;;;2.27;1.07;;;;;;;11.86;100.00;96354.63;5095645;28;20519;-86
2020/12/23 00:18:23;;;;;;;2.23;0.93;;;;;;;11.89;100.00;96347.41;5095525;28;20421;-86
2020/12/23 00:20:50;;;;;;;2.70;1.17;;;;;;;11.97;100.00;96353.47;5096144;28;20457;-85
2020/12/23 00:23:17;;;;;;;1.60;0.90;;;;;;;12.01;100.00;96351.84;5096009;28;20486;-85
2020/12/23 00:25:43;;;;;;;4.60;1.20;;;;;;;12.07;100.00;96351.63;5096106;28;20438;-83
2020/12/23 00:28:12;;;;;;;1.90;1.10;;;;;;;12.06;100.00;96350.91;5100078;28;20451;-83
2020/12/23 00:30:38;;;;;;;1.53;0.90;;;;;;;12.12;100.00;96353.41;5099551;28;20548;-82
2020/12/23 00:33:05;;;;;;;2.10;0.90;;;;;;;12.22;100.00;96348.81;5099198;28;20415;-83
2020/12/23 00:35:31;;;;;;;1.10;1.00;;;;;;;12.19;100.00;96345.25;5099752;28;20454;-83
2020/12/23 00:37:57;;;;;;;1.30;1.10;;;;;;;12.25;100.00;96343.03;5099605;28;20440;-83
2020/12/23 00:40:25;;;;;;;3.03;1.10;;;;;;;12.27;100.00;96345.19;5110698;28;20475;-82
2020/12/23 00:42:51;;;;;;;1.07;0.97;;;;;;;12.35;100.00;96352.00;5119505;28;20495;-83
2020/12/23 00:45:17;;;;;;;1.40;0.90;;;;;;;12.37;100.00;96353.44;5119256;28;20447;-82
2020/12/23 00:47:44;;;;;;;1.40;1.30;;;;;;;12.30;100.00;96349.50;5115675;28;20506;-86
2020/12/23 00:50:10;;;;;;;1.07;0.90;;;;;;;12.35;100.00;96351.28;5095448;28;20467;-86
2020/12/23 00:52:36;;;;;;;2.00;1.40;;;;;;;12.33;100.00;96356.53;5095255;28;20809;-86
2020/12/23 00:55:03;;;;;;;1.33;0.90;;;;;;;12.43;99.90;96359.34;5095809;28;20476;-86
2020/12/23 00:57:30;;;;;;;1.73;0.87;;;;;;;12.40;99.87;96357.75;5095219;28;20511;-87
2020/12/23 00:59:57;;;;;;;1.13;1.03;;;;;;;12.38;100.00;96355.56;5095235;28;20497;-86
2020/12/23 01:02:23;;;;;;;2.00;1.27;;;;;;;12.40;99.91;96355.03;5095512;28;20479;-86
2020/12/23 01:04:49;;;;;;;1.10;1.00;;;;;;;12.41;99.79;96353.75;5095382;28;20419;-85
2020/12/23 01:07:16;;;;;;;2.13;1.07;;;;;;;12.37;99.44;96354.16;5093779;28;20482;-86
2020/12/23 01:09:42;;;;;;;1.10;1.00;;;;;;;12.48;99.61;96352.97;5094627;28;20411;-86
2020/12/23 01:12:08;;;;;;;2.23;0.90;;;;;;;12.41;99.25;96354.47;5094691;28;20972;-86
2020/12/23 01:14:36;;;;;;;2.20;1.20;;;;;;;12.34;99.61;96361.38;5094230;28;20448;-86
2020/12/23 01:17:02;;;;;;;1.63;1.17;;;;;;;12.38;99.56;96358.28;5094680;28;20461;-86
2020/12/23 01:19:28;;;;;;;3.30;1.40;;;;;;;12.35;99.67;96362.09;5094047;28;20419;-86
2020/12/23 01:21:55;;;;;;;2.80;1.17;;;;;;;12.37;99.67;96364.25;5094321;28;20446;-86
2020/12/23 01:24:21;;;;;;;4.57;1.30;;;;;;;12.41;99.25;96361.88;5094520;28;20491;-86
2020/12/23 01:26:48;;;;;;;0.70;0.70;;;;;;;12.52;98.15;96367.56;5094624;28;20422;-86
2020/12/23 01:29:15;;;;;;;1.00;0.90;;;;;;;12.44;98.50;96375.00;5094636;28;20429;-86
2020/12/23 01:31:42;;;;;;;5.07;1.03;;;;;;;12.46;98.60;96358.25;5094355;28;20468;-86
2020/12/23 01:34:09;;;;;;;1.63;1.00;;;;;;;12.49;98.19;96365.97;5094488;28;20419;-86
2020/12/23 01:36:35;;;;;;;0.73;0.73;;;;;;;12.53;97.83;96360.88;5095542;28;20478;-86
2020/12/23 01:39:01;;;;;;;3.33;0.77;;;;;;;12.56;97.83;96359.06;5095175;28;20448;-86
2020/12/23 01:41:28;;;;;;;0.93;0.60;;;;;;;12.53;97.62;96363.59;5096115;28;20444;-86
2020/12/23 01:43:56;;;;;;;0.90;0.80;;;;;;;12.58;97.42;96359.22;5096227;28;20488;-86
2020/12/23 01:46:31;;;;;;;0.90;0.90;;;;;;;12.64;96.77;96357.00;5102073;28;20399;-85
2020/12/23 01:49:01;;;;;;;1.13;0.80;;;;;;;12.69;96.80;96364.19;5109597;28;20388;-82
2020/12/23 01:51:27;;;;;;;2.60;0.90;;;;;;;12.74;96.50;96363.25;5102077;28;20472;-82
2020/12/23 01:53:54;;;;;;;1.73;0.87;;;;;;;12.74;96.23;96366.69;5100125;28;20507;-82
2020/12/23 01:56:21;;;;;;;1.60;0.60;;;;;;;12.75;96.40;96367.38;5110547;28;20411;-82
2020/12/23 01:58:48;;;;;;;1.60;0.80;;;;;;;12.70;96.29;96360.22;5103942;28;20436;-82
2020/12/23 02:01:19;;;;;;;0.90;0.80;;;;;;;12.74;96.39;96363.97;5103174;28;20468;-82
2020/12/23 02:03:45;;;;;;;1.13;0.63;;;;;;;12.83;95.74;96354.50;5104339;28;20559;-86
2020/12/23 02:06:13;;;;;;;0.80;0.70;;;;;;;12.83;95.29;96346.38;5098474;28;20436;-86
2020/12/23 02:08:40;;;;;;;0.50;0.50;;;;;;;12.92;95.01;96351.19;5098020;28;20426;-86
2020/12/23 02:11:09;;;;;;;0.90;0.60;;;;;;;12.87;95.15;96338.59;5097847;28;20522;-86
2020/12/23 02:13:36;;;;;;;1.23;0.90;;;;;;;12.83;95.41;96347.09;5097986;28;20433;-86
2020/12/23 02:16:04;;;;;;;1.53;0.63;;;;;;;12.95;94.86;96343.94;5098082;28;20910;-85
2020/12/23 02:18:30;;;;;;;1.10;0.70;;;;;;;12.92;94.52;96343.06;5098393;28;20518;-86
2020/12/23 02:20:56;;;;;;;0.77;0.60;;;;;;;13.02;94.06;96337.72;5097422;28;20443;-85
2020/12/23 02:23:24;;;;;;;1.00;0.70;;;;;;;13.03;93.89;96339.16;5097925;28;20657;-85
2020/12/23 02:25:50;;;;;;;0.90;0.67;;;;;;;12.98;93.97;96331.97;5097840;28;20565;-85
2020/12/23 02:28:16;;;;;;;1.00;0.47;;;;;;;13.17;92.78;96343.00;5097788;28;20422;-86
2020/12/23 02:30:43;;;;;;;0.70;0.57;;;;;;;13.18;92.73;96328.19;5097759;28;20423;-86
2020/12/23 02:33:09;;;;;;;0.87;0.50;;;;;;;13.23;92.52;96330.66;5098052;28;20439;-86
2020/12/23 02:35:35;;;;;;;1.70;0.60;;;;;;;13.11;93.06;96318.88;5097744;28;20432;-86
2020/12/23 02:38:02;;;;;;;0.60;0.60;;;;;;;13.14;92.87;96317.75;5098345;28;20521;-86
2020/12/23 02:40:29;;;;;;;1.87;0.67;;;;;;;13.13;92.96;96315.59;5097802;28;20468;-86
2020/12/23 02:42:55;;;;;;;1.03;0.60;;;;;;;13.16;92.93;96312.50;5097755;28;20821;-86
2020/12/23 02:45:22;;;;;;;1.20;0.70;;;;;;;13.11;92.95;96312.72;5098052;28;20494;-86
2020/12/23 02:47:48;;;;;;;2.83;0.70;;;;;;;13.12;92.90;96306.78;5097485;28;20396;-85
2020/12/23 02:50:14;;;;;;;0.90;0.67;;;;;;;13.24;92.07;96294.16;5097858;28;20431;-85
2020/12/23 02:52:41;;;;;;;0.60;0.60;;;;;;;13.19;92.19;96302.53;5098030;28;20838;-86
2020/12/23 02:55:07;;;;;;;2.10;0.60;;;;;;;13.21;92.32;96286.44;5098514;28;20975;-86
2020/12/23 02:57:34;;;;;;;2.70;0.80;;;;;;;13.23;91.95;96289.31;5098867;28;20531;-86
2020/12/23 03:00:01;;;;;;;1.53;0.47;;;;;;;13.11;92.26;96302.63;5100016;28;20417;-86
2020/12/23 03:02:27;;;;;;;0.70;0.60;;;;;;;13.25;92.04;96303.03;5112617;28;20465;-85
2020/12/23 03:04:53;;;;;;;1.07;0.70;;;;;;;13.24;91.66;96294.16;5106922;28;20472;-86
2020/12/23 03:07:20;;;;;;;3.63;1.23;;;;;;;13.23;91.34;96281.16;5097148;28;20834;-85
2020/12/23 03:09:46;;;;;;;1.00;0.63;;;;;;;13.37;90.96;96287.69;5096353;28;20550;-86
2020/12/23 03:12:13;;;;;;;1.00;0.60;;;;;;;13.30;91.09;96297.34;5097199;28;20456;-85
2020/12/23 03:14:40;;;;;;;0.80;0.70;;;;;;;13.32;90.88;96292.09;5097136;28;20430;-85
2020/12/23 03:17:06;;;;;;;0.70;0.50;;;;;;;13.29;91.07;96285.06;5096941;28;20840;-85
2020/12/23 03:19:33;;;;;;;0.50;0.40;;;;;;;13.31;90.98;96284.53;5097490;28;20452;-85
2020/12/23 03:21:59;;;;;;;0.60;0.50;;;;;;;13.32;90.91;96288.66;5096952;28;20544;-85
2020/12/23 03:24:26;;;;;;;0.97;0.53;;;;;;;13.33;90.42;96284.66;5097129;28;20492;-86
2020/12/23 03:26:52;;;;;;;0.60;0.47;;;;;;;13.36;90.39;96283.56;5096618;28;20474;-85
2020/12/23 03:29:18;;;;;;;1.40;0.67;;;;;;;13.30;90.65;96285.78;5096924;28;20428;-84
2020/12/23 03:31:46;;;;;;;0.70;0.60;;;;;;;13.37;90.17;96274.84;5096310;28;20464;-84
2020/12/23 03:34:12;;;;;;;0.70;0.60;;;;;;;13.39;90.21;96275.03;5100304;28;20415;-83
2020/12/23 03:36:38;;;;;;;2.50;0.60;;;;;;;13.38;89.94;96278.28;5120045;28;20427;-84
2020/12/23 03:39:07;;;;;;;0.90;0.43;;;;;;;13.31;90.11;96268.25;5120442;28;20505;-82
2020/12/23 03:41:33;;;;;;;0.67;0.50;;;;;;;13.36;89.82;96268.00;5120587;28;20511;-81
2020/12/23 03:44:00;;;;;;;0.70;0.53;;;;;;;13.41;89.96;96269.75;5120172;28;20850;-84
2020/12/23 03:46:26;;;;;;;0.90;0.63;;;;;;;13.43;89.61;96260.34;5114672;28;20471;-81
2020/12/23 03:48:54;;;;;;;1.67;0.50;;;;;;;13.29;90.01;96251.84;5099673;28;20457;-82
2020/12/23 03:51:20;;;;;;;1.90;0.70;;;;;;;13.27;90.27;96257.81;5099141;28;20473;-81
2020/12/23 03:53:46;;;;;;;0.97;0.60;;;;;;;13.38;89.72;96256.59;5109663;28;20435;-85
2020/12/23 03:56:13;;;;;;;0.70;0.63;;;;;;;13.33;89.72;96250.16;5120331;28;20413;-82
2020/12/23 03:58:39;;;;;;;1.10;0.80;;;;;;;13.25;90.04;96251.53;5120339;28;20444;-82
2020/12/23 04:01:06;;;;;;;0.80;0.60;;;;;;;13.27;90.18;96254.41;5120268;28;20456;-84
2020/12/23 04:03:32;;;;;;;0.53;0.50;;;;;;;13.29;89.97;96249.13;5106160;28;20846;-85
2020/12/23 04:05:59;;;;;;;1.60;0.50;;;;;;;13.28;89.57;96253.81;5097353;28;20447;-85
2020/12/23 04:08:26;;;;;;;0.83;0.70;;;;;;;13.33;89.84;96249.44;5096507;28;20418;-85
2020/12/23 04:10:52;;;;;;;2.27;0.50;;;;;;;13.25;89.98;96244.09;5096583;28;20534;-85
2020/12/23 04:13:18;;;;;;;0.70;0.70;;;;;;;13.23;90.32;96246.66;5096319;28;20441;-87
2020/12/23 04:15:45;;;;;;;2.23;0.70;;;;;;;13.26;89.98;96242.84;5095796;28;20415;-86
2020/12/23 04:18:11;;;;;;;0.73;0.60;;;;;;;13.21;89.94;96248.50;5096042;28;20444;-86
2020/12/23 04:20:40;;;;;;;3.70;0.50;;;;;;;13.24;90.17;96250.09;5095208;28;20431;-86
2020/12/23 04:23:09;;;;;;;1.00;0.70;;;;;;;13.17;90.85;96240.78;5095509;28;20488;-86
2020/12/23 04:25:35;;;;;;;0.70;0.63;;;;;;;13.30;90.15;96237.00;5095637;28;20490;-86
2020/12/23 04:28:02;;;;;;;0.70;0.50;;;;;;;13.32;89.60;96234.44;5095415;28;20506;-86
2020/12/23 04:30:28;;;;;;;0.70;0.63;;;;;;;13.24;90.12;96231.84;5095615;28;20456;-85
2020/12/23 04:32:55;;;;;;;2.50;0.47;;;;;;;13.22;90.02;96236.38;5098147;28;21147;-82
2020/12/23 04:35:22;;;;;;;1.03;0.77;;;;;;;13.24;90.18;96239.25;5098712;28;20488;-82
2020/12/23 04:37:48;;;;;;;1.20;0.60;;;;;;;13.22;90.69;96233.66;5098649;28;20506;-82
2020/12/23 04:40:15;;;;;;;2.53;1.00;;;;;;;13.21;91.29;96229.53;5098599;28;20450;-82
2020/12/23 04:42:41;;;;;;;1.53;0.80;;;;;;;13.19;91.52;96232.81;5098030;28;20432;-82
2020/12/23 04:45:08;;;;;;;2.10;0.60;;;;;;;13.17;92.50;96227.22;5098786;28;20466;-82
2020/12/23 04:47:37;;;;;;;0.80;0.80;;;;;;;13.22;92.81;96228.97;5098063;28;20423;-82
2020/12/23 04:50:04;;;;;;;0.60;0.50;;;;;;;13.09;93.08;96223.91;5098328;28;20449;-82
2020/12/23 04:52:31;;;;;;;2.27;0.60;;;;;;;13.06;93.68;96213.44;5100334;28;20435;-82
2020/12/23 04:55:00;;;;;;;0.90;0.60;;;;;;;12.94;94.29;96212.50;5103563;28;20440;-81
2020/12/23 04:57:28;;;;;;;0.70;0.60;;;;;;;12.90;95.03;96207.50;5103120;28;20457;-82
2020/12/23 04:59:54;;;;;;;0.90;0.57;;;;;;;12.93;95.07;96205.66;5104328;28;20464;-81
2020/12/23 05:02:21;;;;;;;0.83;0.60;;;;;;;12.93;94.91;96202.94;5103288;28;20816;-82
2020/12/23 05:04:47;;;;;;;4.00;0.80;;;;;;;12.90;95.01;96213.59;5103664;28;20538;-82
2020/12/23 05:07:18;;;;;;;0.97;0.53;;;;;;;12.95;95.05;96211.22;5103535;28;20530;-82
2020/12/23 05:09:46;;;;;;;1.27;0.63;;;;;;;12.91;95.36;96219.75;5095993;28;20467;-87
2020/12/23 05:12:13;;;;;;;0.70;0.70;;;;;;;12.89;95.40;96212.19;5095731;28;20439;-87
2020/12/23 05:14:41;;;;;;;2.10;0.60;;;;;;;12.91;95.54;96214.31;5095581;28;20407;-86
2020/12/23 05:17:09;;;;;;;1.43;0.77;;;;;;;12.84;95.71;96207.00;5095519;28;20479;-87
2020/12/23 05:19:38;;;;;;;1.60;0.83;;;;;;;12.76;95.91;96203.66;5096551;28;20805;-86
2020/12/23 05:22:06;;;;;;;4.77;0.90;;;;;;;12.71;96.39;96205.34;5095533;28;20452;-87
2020/12/23 05:24:33;;;;;;;0.60;0.50;;;;;;;12.77;96.45;96202.41;5095299;28;20484;-86
2020/12/23 05:27:04;;;;;;;2.13;0.70;;;;;;;12.74;96.61;96206.22;5095255;28;20798;-86
2020/12/23 05:29:30;;;;;;;1.40;0.77;;;;;;;12.65;96.86;96204.16;5095504;28;20494;-86
2020/12/23 05:31:57;;;;;;;2.30;0.97;;;;;;;12.65;97.02;96206.84;5095447;28;20460;-87
2020/12/23 05:34:25;;;;;;;1.87;0.77;;;;;;;12.69;96.49;96204.44;5099641;28;20437;-87
2020/12/23 05:36:52;;;;;;;1.83;0.80;;;;;;;12.69;96.52;96204.44;5099309;28;21098;-86
2020/12/23 05:39:18;;;;;;;0.80;0.80;;;;;;;12.67;96.38;96196.91;5099342;28;20429;-85
2020/12/23 05:41:46;;;;;;;0.80;0.70;;;;;;;12.66;96.32;96194.75;5099176;28;20536;-86
2020/12/23 05:44:19;;;;;;;0.73;0.60;;;;;;;12.71;96.47;96199.94;5099518;28;20984;-87
2020/12/23 05:46:47;;;;;;;6.63;0.90;;;;;;;12.72;96.37;96200.63;5099126;28;20436;-86
2020/12/23 05:49:15;;;;;;;1.10;0.70;;;;;;;12.64;96.65;96200.00;5098984;28;20425;-86
2020/12/23 05:51:43;;;;;;;0.90;0.60;;;;;;;12.61;96.87;96199.13;5099290;28;20476;-81
2020/12/23 05:54:11;;;;;;;2.93;1.00;;;;;;;12.57;97.03;96193.41;5105086;28;20528;-84
2020/12/23 05:56:38;;;;;;;0.90;0.70;;;;;;;12.59;97.08;96185.41;5101439;28;20403;-82
2020/12/23 05:59:04;;;;;;;2.20;0.90;;;;;;;12.56;97.34;96191.94;5102145;28;20947;-82
2020/12/23 06:01:35;;;;;;;2.20;0.90;;;;;;;12.55;97.59;96187.84;5103365;28;20460;-82
2020/12/23 06:04:05;;;;;;;1.00;0.83;;;;;;;12.57;97.55;96179.84;5099902;28;20450;-87
2020/12/23 06:06:33;;;;;;;1.80;0.83;;;;;;;12.59;97.21;96182.72;5100083;28;20447;-87
2020/12/23 06:09:01;;;;;;;1.07;0.97;;;;;;;12.69;96.34;96167.28;5099073;28;20523;-86
2020/12/23 06:11:36;;;;;;;1.10;1.00;;;;;;;12.64;96.47;96165.53;5098601;28;20976;-86
2020/12/23 06:14:14;;;;;;;1.47;0.70;;;;;;;12.57;97.00;96157.50;5098578;28;20399;-87
2020/12/23 06:16:42;;;;;;;1.43;1.00;;;;;;;12.50;97.31;96159.00;5101043;28;21053;-82
2020/12/23 06:19:10;;;;;;;1.80;1.20;;;;;;;12.49;97.89;96163.00;5102875;28;20410;-81
2020/12/23 06:21:38;;;;;;;1.97;1.00;;;;;;;12.39;98.37;96153.34;5104002;28;20808;-82
2020/12/23 06:24:07;;;;;;;1.77;0.90;;;;;;;12.36;98.65;96149.78;5104278;28;20490;-81
2020/12/23 06:26:35;;;;;;;1.10;0.70;;;;;;;12.37;98.56;96153.22;5102053;28;21003;-83
2020/12/23 06:29:04;;;;;;;1.50;1.10;;;;;;;12.37;98.77;96164.75;5101878;28;20536;-84
2020/12/23 06:31:38;;;;;;;1.30;1.07;;;;;;;12.39;98.67;96159.50;5102767;28;20435;-82
2020/12/23 06:34:05;;;;;;;0.97;0.63;;;;;;;12.39;98.57;96150.66;5120357;28;20551;-82
2020/12/23 06:36:34;;;;;;;1.10;1.00;;;;;;;12.36;98.43;96152.47;5120353;28;20467;-84
2020/12/23 06:39:31;;;;;;;1.60;0.97;;;;;;;12.29;98.70;96142.44;5120595;28;20419;-85
2020/12/23 06:42:25;;;;;;;2.73;1.50;;;;;;;12.25;98.90;96142.84;5103751;28;20460;-85
2020/12/23 06:45:13;;;;;;;3.03;1.20;;;;;;;12.21;99.12;96141.81;5093137;28;20455;-85
2020/12/23 06:47:40;;;;;;;2.43;1.13;;;;;;;12.25;98.72;96152.94;5097214;28;20767;-85
2020/12/23 06:50:15;;;;;;;1.07;0.97;;;;;;;12.20;98.93;96148.50;5097134;28;20551;-85
2020/12/23 06:52:44;;;;;;;1.13;0.90;;;;;;;12.17;99.10;96147.63;5097490;28;20410;-85
2020/12/23 06:55:13;;;;;;;2.70;1.47;;;;;;;12.32;98.44;96144.03;5098472;28;20475;-85
2020/12/23 06:57:55;;;;;;;1.33;0.83;;;;;;;12.29;98.10;96143.16;5098840;28;20860;-86
2020/12/23 07:00:38;;;;;;;0.73;0.60;;;;;;;12.32;97.98;96152.16;5097696;28;20436;-86
2020/12/23 07:03:09;;;;;;;1.17;0.70;;;;;;;12.31;97.63;96151.44;5097516;28;20823;-85
2020/12/23 07:05:38;;;;;;;0.70;0.60;;;;;;;12.31;97.67;96145.31;5097490;28;20423;-84
2020/12/23 07:08:06;;;;;;;1.83;0.90;;;;;;;12.29;97.74;96154.00;5098792;28;20759;-83
2020/12/23 07:10:34;;;;;;;1.03;0.80;;;;;;;12.34;97.35;96149.63;5099541;28;20439;-81
2020/12/23 07:13:02;;;;;;;1.90;1.37;;;;;;;12.41;96.56;96142.69;5099992;28;20415;-81
2020/12/23 07:15:30;;;;;;;3.50;0.97;;;;;;;12.37;96.73;96147.78;5100301;28;20456;-81
2020/12/23 07:18:01;;;;;;;2.70;1.10;;;;;;;12.36;96.34;96149.78;5099297;28;20444;-82
2020/12/23 07:20:29;;;;;;;0.87;0.80;;;;;;;12.32;96.25;96152.16;5098526;28;20410;-84
2020/12/23 07:23:01;;;;;;;1.50;0.80;;;;;;;12.33;96.04;96156.31;5097653;28;20427;-83
2020/12/23 07:25:28;;;;;;;0.77;0.63;;;;;;;12.41;95.30;96156.94;5098626;28;20424;-84
2020/12/23 07:27:57;;;;;;;1.50;0.83;;;;;;;12.42;95.04;96152.97;5098477;28;20498;-84
2020/12/23 07:30:24;;;;;;;5.33;0.93;;;;;;;12.48;94.79;96161.56;5098514;28;20440;-84
2020/12/23 07:33:01;;;;;;;1.57;0.67;;;;;;;12.55;94.21;96168.16;5097986;28;20441;-85
2020/12/23 07:35:28;;;;;;;0.90;0.80;;;;;;;12.55;94.11;96152.66;5098224;28;20436;-87
2020/12/23 07:37:58;;;;;;;1.07;0.90;;;;;;;12.58;93.74;96156.94;5098177;28;20407;-87
2020/12/23 07:40:26;;;;;;;1.07;0.90;;;;;;;12.68;93.38;96160.44;5098220;28;20457;-85
2020/12/23 07:42:53;;;;;;;0.80;0.70;;;;;;;12.73;92.47;96158.75;5097845;28;20414;-87
2020/12/23 07:45:20;;;;;;;0.90;0.60;;;;;;;12.71;92.16;96162.03;5097192;28;20459;-86
2020/12/23 07:47:58;;;;;;;1.03;0.80;;;;;;;12.73;92.26;96150.63;5101377;28;20423;-84
2020/12/23 07:50:26;;;;;;;1.33;1.23;;;;;;;12.68;92.24;96155.03;5102352;28;20937;-85
2020/12/23 07:52:52;;;;;;;1.57;0.90;;;;;;;12.67;92.07;96164.41;5099545;28;20433;-85
2020/12/23 07:55:20;;;;;;;1.10;0.90;;;;;;;12.70;92.21;96163.28;5105014;28;20908;-83
2020/12/23 07:57:49;;;;;;;2.73;1.07;;;;;;;12.80;91.28;96164.09;5106812;28;20486;-81
2020/12/23 08:00:16;;;;;;;0.80;0.80;;;;;;;12.81;90.96;96162.78;5104630;28;20405;-86
2020/12/23 08:02:43;;;;;;;1.40;1.30;;;;;;;12.74;91.12;96157.50;5098904;28;20460;-84
2020/12/23 08:05:12;;;;;;;1.47;0.80;;;;;;;12.87;89.87;96155.13;5098803;28;20547;-84
2020/12/23 08:07:44;;;;;;;1.40;0.90;;;;;;;12.89;89.71;96160.00;5098947;28;20415;-83
2020/12/23 08:10:15;;;;;;;2.97;1.00;;;;;;;12.93;89.35;96168.44;5106606;28;20411;-83
2020/12/23 08:12:42;;;;;;;1.03;0.73;;;;;;;12.93;89.24;96168.44;5106949;28;20459;-81
2020/12/23 08:15:13;;;;;;;4.50;0.90;;;;;;;12.87;89.40;96171.38;5106218;28;20415;-82
2020/12/23 08:17:41;;;;;;;0.80;0.80;;;;;;;12.85;89.61;96165.81;5105322;28;20970;-82
2020/12/23 08:20:10;;;;;;;3.50;1.20;;;;;;;12.89;89.70;96168.84;5105549;28;20440;-83
2020/12/23 08:22:38;;;;;;;1.10;0.90;;;;;;;12.83;89.60;96165.69;5106786;28;20418;-82
2020/12/23 08:25:13;;;;;;;2.13;1.50;;;;;;;12.89;89.40;96163.44;5107122;28;20458;-82
2020/12/23 08:27:42;;;;;;;1.07;0.90;;;;;;;12.92;89.23;96171.72;5102455;28;20963;-80
2020/12/23 08:30:10;;;;;;;1.00;0.70;;;;;;;12.93;89.18;96163.03;5102506;28;20471;-80
2020/12/23 08:32:46;;;;;;;0.90;0.80;;;;;;;13.04;88.34;96169.94;5104087;28;20414;-81
2020/12/23 08:35:14;;;;;;;0.97;0.80;;;;;;;13.04;88.73;96175.34;5102585;28;20489;-82
2020/12/23 08:37:41;;;;;;;1.03;0.87;;;;;;;13.11;88.12;96174.56;5101659;28;20399;-83
2020/12/23 08:40:08;;;;;;;1.10;0.80;;;;;;;13.09;88.43;96174.44;5102172;28;20403;-83
2020/12/23 08:42:35;;;;;;;3.63;1.40;;;;;;;13.04;88.32;96172.63;5100537;28;20443;-83
2020/12/23 08:45:04;;;;;;;2.30;0.97;;;;;;;13.06;88.23;96178.94;5099285;28;20967;-82
2020/12/23 08:47:33;;;;;;;1.90;0.97;;;;;;;13.06;88.55;96164.69;5104683;28;20415;-85
2020/12/23 08:50:01;;;;;;;1.67;1.10;;;;;;;13.15;88.03;96170.19;5104974;28;20419;-83
2020/12/23 08:52:28;;;;;;;2.10;1.10;;;;;;;13.18;87.59;96160.22;5107546;28;20456;-81
2020/12/23 08:54:55;;;;;;;2.17;0.97;;;;;;;13.27;87.05;96164.97;5101341;28;20445;-80
2020/12/23 08:57:27;;;;;;;5.30;0.87;;;;;;;13.27;86.62;96164.97;5098221;28;20549;-81
2020/12/23 08:59:55;;;;;;;1.67;0.90;;;;;;;13.29;86.95;96165.84;5099343;28;20445;-81
2020/12/23 09:02:22;;;;;;;1.50;1.03;;;;;;;13.29;86.84;96162.41;5104297;28;20467;-82
2020/12/23 09:04:48;;;;;;;5.20;1.03;;;;;;;13.32;86.79;96162.00;5105062;28;20996;-82
2020/12/23 09:07:21;;;;;;;1.10;0.87;;;;;;;13.37;86.27;96163.72;5106586;28;20441;-83
2020/12/23 09:09:49;;;;;;;1.50;0.90;;;;;;;13.41;86.27;96164.03;5105452;28;20450;-82
2020/12/23 09:12:22;;;;;;;1.90;0.77;;;;;;;13.35;86.31;96157.44;5098053;28;20486;-83
2020/12/23 09:14:49;;;;;;;0.87;0.80;;;;;;;13.36;86.43;96162.31;5096237;28;20427;-84
2020/12/23 09:17:23;;;;;;;1.20;0.80;;;;;;;13.49;86.03;96157.78;5097965;28;20445;-84
2020/12/23 09:19:59;;;;;;;1.10;0.90;;;;;;;13.44;85.89;96164.22;5098695;28;20587;-84
2020/12/23 09:22:30;;;;;;;1.30;0.90;;;;;;;13.46;85.87;96167.06;5098699;28;20529;-85
2020/12/23 09:25:21;;;;;;;1.63;1.00;;;;;;;13.46;85.73;96161.63;5100534;28;20476;-84
2020/12/23 09:27:49;;;;;;;1.67;1.20;;;;;;;13.41;86.22;96160.59;5099193;28;20400;-83
2020/12/23 09:30:30;;;;;;;1.93;0.90;;;;;;;13.44;85.91;96153.38;5101088;28;20426;-85
2020/12/23 09:32:56;;;;;;;0.93;0.83;;;;;;;13.44;85.70;96166.91;5104257;28;20432;-82
2020/12/23 09:35:24;;;;;;;11.53;1.20;;;;;;;13.55;84.97;96158.97;5117936;28;20504;-85
2020/12/23 09:38:06;;;;;;;1.13;0.87;;;;;;;13.49;85.70;96163.94;5117954;28;20425;-81
2020/12/23 09:40:33;;;;;;;1.67;1.13;;;;;;;13.59;85.43;96161.28;5117655;28;20523;-82
2020/12/23 09:43:00;;;;;;;1.23;1.10;;;;;;;13.55;85.81;96150.13;5112083;28;20771;-81
2020/12/23 09:45:26;;;;;;;2.23;1.27;;;;;;;13.47;85.82;96154.94;5106939;28;20956;-84
2020/12/23 09:47:52;;;;;;;1.60;1.30;;;;;;;13.57;85.45;96150.97;5106782;28;20472;-84
2020/12/23 09:50:19;;;;;;;3.03;1.60;;;;;;;13.54;85.76;96162.22;5111947;28;20464;-83
2020/12/23 09:52:45;;;;;;;1.90;1.00;;;;;;;13.65;84.89;96153.59;5117007;28;20523;-82
2020/12/23 09:55:12;;;;;;;3.33;1.50;;;;;;;13.65;84.89;96148.88;5117438;28;20496;-82
2020/12/23 09:57:39;;;;;;;2.00;1.30;;;;;;;13.60;85.33;96141.72;5115785;28;20460;-86
2020/12/23 10:00:07;;;;;;;2.10;1.23;;;;;;;13.61;85.49;96140.44;5102762;28;20455;-86
2020/12/23 10:02:33;;;;;;;1.50;1.10;;;;;;;13.60;85.10;96138.28;5103981;28;20787;-86
2020/12/23 10:04:59;;;;;;;1.13;1.00;;;;;;;13.66;85.11;96130.59;5096985;28;20996;-85
2020/12/23 10:07:26;;;;;;;1.40;1.20;;;;;;;13.69;84.78;96127.47;5097484;28;20452;-80
2020/12/23 10:09:52;;;;;;;2.00;1.13;;;;;;;13.59;85.66;96131.44;5098989;28;20469;-81
2020/12/23 10:12:22;;;;;;;2.07;1.07;;;;;;;13.60;85.52;96128.16;5098707;28;20498;-80
2020/12/23 10:14:49;;;;;;;1.30;1.20;;;;;;;13.68;85.97;96119.91;5098164;28;20444;-81
2020/12/23 10:17:16;;;;;;;1.47;1.37;;;;;;;13.62;85.81;96114.78;5097772;28;20447;-80
2020/12/23 10:19:42;;;;;;;1.13;1.03;;;;;;;13.63;85.75;96115.47;5100141;28;20508;-81
2020/12/23 10:22:09;;;;;;;1.47;1.33;;;;;;;13.59;86.08;96112.47;5103355;28;20471;-81
2020/12/23 10:24:35;;;;;;;1.23;1.10;;;;;;;13.70;85.80;96109.94;5101985;28;20487;-81
2020/12/23 10:27:02;;;;;;;1.53;1.10;;;;;;;13.64;86.29;96101.34;5102437;28;20473;-79
2020/12/23 10:29:28;;;;;;;3.10;1.37;;;;;;;13.71;86.08;96100.53;5103499;28;20476;-80
2020/12/23 10:31:56;;;;;;;2.27;1.23;;;;;;;13.73;86.06;96092.53;5104542;28;20795;-81
2020/12/23 10:34:22;;;;;;;2.63;1.57;;;;;;;13.93;85.21;96094.00;5103200;28;20419;-80
2020/12/23 10:36:48;;;;;;;0.93;0.80;;;;;;;13.98;84.88;96089.56;5102922;28;20438;-81
2020/12/23 10:39:17;;;;;;;1.47;1.10;;;;;;;14.06;84.66;96086.72;5103844;28;20578;-81
2020/12/23 10:41:44;;;;;;;2.30;1.40;;;;;;;14.15;84.09;96086.03;5104537;28;20554;-81
2020/12/23 10:44:10;;;;;;;1.67;1.00;;;;;;;14.17;84.08;96083.44;5100845;28;20465;-84
2020/12/23 10:46:37;;;;;;;2.73;1.37;;;;;;;14.21;83.76;96078.31;5100452;28;20503;-81
2020/12/23 10:49:05;;;;;;;2.60;1.60;;;;;;;14.18;83.80;96063.16;5103395;28;20475;-82
2020/12/23 10:51:31;;;;;;;4.33;2.53;;;;;;;14.20;84.10;96066.72;5105224;28;20474;-83
2020/12/23 10:53:58;;;;;;;2.23;1.33;;;;;;;14.21;84.09;96062.03;5108584;28;20429;-84
2020/12/23 10:56:24;;;;;;;2.27;1.50;;;;;;;14.27;84.16;96055.03;5107201;28;20440;-82
2020/12/23 10:58:50;;;;;;;1.87;1.10;;;;;;;14.26;83.88;96042.72;5103572;28;20450;-84
2020/12/23 11:01:18;;;;;;;2.60;1.20;;;;;;;14.39;83.03;96044.31;5101294;28;20469;-85
2020/12/23 11:03:44;;;;;;;1.97;0.90;;;;;;;14.40;82.51;96048.47;5101956;28;21050;-83
2020/12/23 11:06:13;;;;;;;1.73;1.17;;;;;;;14.40;83.29;96045.75;5100024;28;20439;-85
2020/12/23 11:08:40;;;;;;;1.13;0.97;;;;;;;14.38;83.54;96037.47;5098802;28;20941;-85
2020/12/23 11:11:06;;;;;;;1.70;0.90;;;;;;;14.46;84.08;96043.47;5098688;28;20473;-81
2020/12/23 11:13:33;;;;;;;1.03;0.70;;;;;;;14.39;83.48;96039.63;5102171;28;20437;-82
2020/12/23 11:15:59;;;;;;;3.03;1.10;;;;;;;14.34;83.72;96031.78;5101252;28;21013;-81
2020/12/23 11:18:26;;;;;;;1.20;1.10;;;;;;;14.40;82.93;96027.47;5101611;28;20437;-82
2020/12/23 11:20:52;;;;;;;1.47;1.10;;;;;;;14.44;83.01;96016.88;5106629;28;20460;-83
2020/12/23 11:23:26;;;;;;;1.43;1.10;;;;;;;14.44;82.48;96024.31;5107905;28;20418;-83
2020/12/23 11:25:53;;;;;;;1.73;1.07;;;;;;;14.38;83.28;96026.59;5106833;28;20437;-83
2020/12/23 11:28:20;;;;;;;1.10;0.80;;;;;;;14.37;83.20;96009.63;5107893;28;20834;-83
2020/12/23 11:30:46;;;;;;;1.60;1.10;;;;;;;14.33;83.78;96014.03;5104406;28;20487;-84
2020/12/23 11:33:13;;;;;;;1.40;1.13;;;;;;;14.31;83.81;96009.19;5099184;28;20471;-86
2020/12/23 11:35:39;;;;;;;1.83;1.07;;;;;;;14.35;83.55;96011.47;5098970;28;20516;-85